Time;durP1;ratioP1;P1;durP2;ratioP2;P2;SDS_P1;SDS_P2;PMS_P1;PMS_P2;Temp;Humidity;BMP_temperature;BMP_pressure;BME280_temperature;BME280_humidity;BME280_pressure;Samples;Min_cycle;Max_cycle;Signal;HPM_P1;HPM_P2
2021/11/27 00:01:53;;;;;;;1.97;1.87;;;;;;;3.10;97.22;97769.91;5070977;28;20171;-80
2021/11/27 00:04:18;;;;;;;6.00;3.33;;;;;;;3.09;97.10;97770.25;5071074;28;20707;-80
2021/11/27 00:06:44;;;;;;;0.67;0.67;;;;;;;3.04;97.96;97773.94;5071107;28;20170;-79
2021/11/27 00:09:10;;;;;;;4.27;2.47;;;;;;;3.03;97.96;97758.84;5071438;28;20533;-80
2021/11/27 00:11:36;;;;;;;1.50;1.20;;;;;;;3.06;98.31;97758.19;5070851;28;20329;-79
2021/11/27 00:14:02;;;;;;;1.23;0.93;;;;;;;3.04;98.83;97757.75;5070968;28;20530;-79
2021/11/27 00:16:27;;;;;;;3.00;2.80;;;;;;;2.99;98.91;97734.44;5070764;28;20171;-79
2021/11/27 00:18:53;;;;;;;1.80;1.67;;;;;;;2.95;100.00;97762.41;5070997;28;20178;-79
2021/11/27 00:21:20;;;;;;;5.27;3.00;;;;;;;2.84;100.00;97751.19;5070875;28;20228;-78
2021/11/27 00:23:47;;;;;;;2.27;2.07;;;;;;;2.94;100.00;97758.13;5070835;28;20514;-79
2021/11/27 00:26:14;;;;;;;2.20;2.07;;;;;;;2.92;100.00;97763.06;5070688;28;20175;-78
2021/11/27 00:28:40;;;;;;;3.43;2.87;;;;;;;2.93;100.00;97753.84;5070906;28;20167;-79
2021/11/27 00:31:16;;;;;;;2.00;1.80;;;;;;;2.92;100.00;97753.06;5070609;28;20204;-78
2021/11/27 00:33:43;;;;;;;4.07;2.23;;;;;;;2.89;100.00;97740.25;5070299;28;20468;-78
2021/11/27 00:36:09;;;;;;;3.00;2.70;;;;;;;2.82;100.00;97742.66;5071015;28;20194;-79
2021/11/27 00:38:35;;;;;;;4.10;2.97;;;;;;;2.83;100.00;97740.75;5070655;28;20254;-79
2021/11/27 00:41:02;;;;;;;3.10;2.80;;;;;;;2.82;100.00;97742.66;5070685;28;20282;-78
2021/11/27 00:43:27;;;;;;;2.20;1.97;;;;;;;2.77;100.00;97739.38;5069325;28;20252;-79
2021/11/27 00:45:53;;;;;;;1.40;1.03;;;;;;;2.89;100.00;97752.91;5070371;28;20170;-79
2021/11/27 00:48:19;;;;;;;2.50;1.13;;;;;;;2.95;100.00;97741.63;5069290;28;20177;-79
2021/11/27 00:50:48;;;;;;;1.47;1.37;;;;;;;2.93;100.00;97743.84;5070548;28;20197;-79
2021/11/27 00:53:14;;;;;;;1.70;1.43;;;;;;;2.98;100.00;97742.84;5070323;28;20687;-79
2021/11/27 00:55:40;;;;;;;1.03;0.93;;;;;;;2.90;100.00;97741.81;5070317;28;20712;-79
2021/11/27 00:58:05;;;;;;;2.40;2.13;;;;;;;2.90;100.00;97735.63;5070445;28;20254;-79
2021/11/27 01:00:36;;;;;;;3.30;2.60;;;;;;;2.84;100.00;97735.00;5069116;28;20202;-79
2021/11/27 01:03:04;;;;;;;2.77;2.23;;;;;;;2.76;100.00;97735.88;5070129;28;20175;-80
2021/11/27 01:05:31;;;;;;;1.07;1.07;;;;;;;2.82;100.00;97739.16;5068896;28;20175;-79
2021/11/27 01:07:57;;;;;;;2.83;2.23;;;;;;;2.75;100.00;97744.25;5070376;28;20190;-79
2021/11/27 01:10:25;;;;;;;1.43;1.33;;;;;;;2.73;100.00;97739.19;5070160;28;20186;-79
2021/11/27 01:12:51;;;;;;;3.30;2.00;;;;;;;2.76;100.00;97752.06;5070486;28;20183;-79
2021/11/27 01:15:20;;;;;;;2.40;2.20;;;;;;;2.71;100.00;97740.66;5070166;28;20175;-80
2021/11/27 01:17:46;;;;;;;3.90;2.50;;;;;;;2.58;100.00;97737.06;5070346;28;20480;-80
2021/11/27 01:20:23;;;;;;;1.77;1.03;;;;;;;2.65;100.00;97740.06;5070417;28;20225;-80
2021/11/27 01:22:48;;;;;;;2.43;2.23;;;;;;;2.57;100.00;97738.19;5070348;28;20178;-80
2021/11/27 01:25:14;;;;;;;3.93;2.13;;;;;;;2.64;100.00;97741.19;5070219;28;20175;-79
2021/11/27 01:27:40;;;;;;;1.10;1.10;;;;;;;2.74;100.00;97740.78;5068750;28;20186;-79
2021/11/27 01:30:08;;;;;;;4.53;2.50;;;;;;;2.73;100.00;97738.41;5070469;28;20179;-79
2021/11/27 01:32:35;;;;;;;2.53;2.27;;;;;;;2.71;100.00;97736.03;5070048;28;20563;-80
2021/11/27 01:35:00;;;;;;;1.60;1.50;;;;;;;2.54;100.00;97726.16;5070069;28;20228;-80
2021/11/27 01:37:25;;;;;;;1.57;1.40;;;;;;;2.68;100.00;97734.00;5069073;28;20201;-80
2021/11/27 01:39:51;;;;;;;2.50;2.10;;;;;;;2.61;100.00;97726.44;5070377;28;20171;-80
2021/11/27 01:42:16;;;;;;;2.10;1.83;;;;;;;2.52;100.00;97722.22;5070401;28;20182;-80
2021/11/27 01:44:42;;;;;;;2.33;2.03;;;;;;;2.49;100.00;97729.06;5070200;28;20581;-79
2021/11/27 01:47:08;;;;;;;2.97;2.67;;;;;;;2.47;100.00;97720.50;5072921;28;20182;-80
2021/11/27 01:49:33;;;;;;;2.23;1.60;;;;;;;2.49;100.00;97728.25;5073987;28;20174;-79
2021/11/27 01:51:59;;;;;;;2.20;1.60;;;;;;;2.58;100.00;97712.81;5073480;28;20267;-78
2021/11/27 01:54:25;;;;;;;2.10;1.83;;;;;;;2.51;100.00;97720.63;5073530;28;20638;-79
2021/11/27 01:56:57;;;;;;;3.30;1.23;;;;;;;2.57;100.00;97724.72;5073598;28;20577;-79
2021/11/27 01:59:24;;;;;;;2.53;2.33;;;;;;;2.58;100.00;97721.69;5073827;28;20170;-79
2021/11/27 02:01:50;;;;;;;2.33;1.87;;;;;;;2.54;100.00;97719.97;5073677;28;20189;-80
2021/11/27 02:04:17;;;;;;;2.90;2.10;;;;;;;2.57;100.00;97728.19;5073729;28;20182;-80
2021/11/27 02:06:44;;;;;;;1.77;1.67;;;;;;;2.68;100.00;97720.53;5077648;28;20577;-81
2021/11/27 02:09:20;;;;;;;2.40;2.20;;;;;;;2.62;100.00;97711.06;5082918;28;20179;-80
2021/11/27 02:11:47;;;;;;;3.40;2.10;;;;;;;2.55;100.00;97700.78;5078332;28;20206;-80
2021/11/27 02:14:13;;;;;;;2.13;1.57;;;;;;;2.60;100.00;97708.69;5074237;28;20592;-80
2021/11/27 02:16:40;;;;;;;1.53;1.43;;;;;;;2.64;100.00;97709.63;5073117;28;20206;-80
2021/11/27 02:19:06;;;;;;;2.17;1.40;;;;;;;2.71;100.00;97705.59;5072990;28;20179;-80
2021/11/27 02:21:32;;;;;;;1.97;1.53;;;;;;;2.71;100.00;97698.31;5073110;28;20170;-80
2021/11/27 02:23:58;;;;;;;2.67;1.90;;;;;;;2.69;100.00;97704.03;5072813;28;20882;-80
2021/11/27 02:26:27;;;;;;;3.00;2.10;;;;;;;2.60;100.00;97683.63;5072801;28;20483;-81
2021/11/27 02:29:00;;;;;;;3.20;1.87;;;;;;;2.68;100.00;97696.28;5072681;28;20577;-80
2021/11/27 02:31:26;;;;;;;2.03;1.87;;;;;;;2.75;100.00;97704.66;5071620;28;20210;-80
2021/11/27 02:33:52;;;;;;;2.33;2.13;;;;;;;2.79;100.00;97702.88;5073072;28;20258;-80
2021/11/27 02:36:18;;;;;;;1.97;1.87;;;;;;;2.80;100.00;97706.34;5073011;28;20278;-81
2021/11/27 02:38:43;;;;;;;2.23;2.03;;;;;;;2.87;100.00;97706.59;5072592;28;20258;-80
2021/11/27 02:41:09;;;;;;;2.40;2.00;;;;;;;2.76;100.00;97700.03;5072627;28;20575;-79
2021/11/27 02:43:34;;;;;;;2.07;1.97;;;;;;;2.78;100.00;97703.19;5072474;28;20228;-80
2021/11/27 02:46:00;;;;;;;2.07;1.87;;;;;;;2.78;100.00;97711.28;5072319;28;20258;-80
2021/11/27 02:48:26;;;;;;;5.10;1.50;;;;;;;2.82;100.00;97710.28;5072391;28;20184;-80
2021/11/27 02:50:51;;;;;;;1.87;1.73;;;;;;;2.78;100.00;97714.78;5072350;28;20202;-80
2021/11/27 02:53:17;;;;;;;2.73;2.13;;;;;;;2.79;100.00;97710.97;5072342;28;20570;-81
2021/11/27 02:55:43;;;;;;;2.30;2.20;;;;;;;2.88;100.00;97716.28;5072159;28;20185;-80
2021/11/27 02:58:09;;;;;;;2.37;1.80;;;;;;;2.90;100.00;97722.94;5070537;28;20183;-80
2021/11/27 03:00:35;;;;;;;2.53;1.50;;;;;;;3.01;100.00;97725.22;5072537;28;20170;-80
2021/11/27 03:03:00;;;;;;;1.33;1.17;;;;;;;3.11;100.00;97724.84;5071953;28;20266;-79
2021/11/27 03:05:25;;;;;;;1.13;1.03;;;;;;;3.08;100.00;97702.03;5071937;28;20182;-80
2021/11/27 03:07:51;;;;;;;1.53;1.43;;;;;;;3.09;100.00;97703.59;5072057;28;20253;-80
2021/11/27 03:10:19;;;;;;;2.87;1.20;;;;;;;3.04;100.00;97705.69;5071941;28;20623;-80
2021/11/27 03:12:46;;;;;;;1.93;1.73;;;;;;;3.09;100.00;97711.69;5071936;28;20215;-79
2021/11/27 03:15:15;;;;;;;1.53;1.10;;;;;;;3.09;100.00;97708.19;5072069;28;20175;-79
2021/11/27 03:17:41;;;;;;;1.10;1.10;;;;;;;3.05;100.00;97701.91;5071930;28;20174;-79
2021/11/27 03:20:09;;;;;;;1.83;1.37;;;;;;;3.09;100.00;97708.19;5070508;28;20186;-80
2021/11/27 03:22:34;;;;;;;1.47;1.37;;;;;;;3.05;100.00;97705.38;5071818;28;20210;-80
2021/11/27 03:25:00;;;;;;;1.33;1.23;;;;;;;3.11;100.00;97705.97;5071487;28;20590;-79
2021/11/27 03:27:25;;;;;;;1.33;1.23;;;;;;;3.04;100.00;97706.50;5071674;28;20183;-80
2021/11/27 03:29:50;;;;;;;1.43;1.33;;;;;;;3.06;100.00;97704.25;5071858;28;20229;-80
2021/11/27 03:32:18;;;;;;;1.83;1.70;;;;;;;3.01;100.00;97703.66;5071431;28;20198;-80
2021/11/27 03:34:44;;;;;;;1.60;1.50;;;;;;;3.14;100.00;97708.00;5071168;28;20171;-79
2021/11/27 03:37:09;;;;;;;2.20;2.00;;;;;;;2.92;100.00;97707.22;5071520;28;20174;-80
2021/11/27 03:39:35;;;;;;;2.83;1.60;;;;;;;2.94;100.00;97706.88;5071408;28;20170;-79
2021/11/27 03:42:07;;;;;;;2.17;1.60;;;;;;;2.81;100.00;97705.22;5069914;28;20181;-79
2021/11/27 03:44:33;;;;;;;2.27;1.90;;;;;;;2.86;100.00;97711.22;5071206;28;20171;-80
2021/11/27 03:46:59;;;;;;;1.80;1.70;;;;;;;2.72;100.00;97705.28;5070952;28;20546;-80
2021/11/27 03:49:28;;;;;;;1.77;1.47;;;;;;;2.71;100.00;97711.00;5071343;28;20216;-79
2021/11/27 03:51:54;;;;;;;2.10;1.90;;;;;;;2.72;100.00;97720.66;5071246;28;20586;-79
2021/11/27 03:54:21;;;;;;;1.93;1.73;;;;;;;2.92;100.00;97723.41;5071143;28;20179;-79
2021/11/27 03:56:46;;;;;;;2.53;1.60;;;;;;;3.04;100.00;97738.88;5070963;28;20186;-80
2021/11/27 03:59:12;;;;;;;1.60;1.50;;;;;;;3.18;100.00;97727.78;5071081;28;20179;-78
2021/11/27 04:01:38;;;;;;;2.50;2.23;;;;;;;3.18;100.00;97733.19;5071255;28;20178;-80
2021/11/27 04:04:04;;;;;;;2.17;1.97;;;;;;;3.05;100.00;97726.16;5071057;28;20170;-79
2021/11/27 04:06:31;;;;;;;2.27;1.70;;;;;;;3.18;100.00;97734.00;5070896;28;20263;-80
2021/11/27 04:08:59;;;;;;;2.67;2.07;;;;;;;3.22;100.00;97728.72;5070071;28;20554;-80
2021/11/27 04:11:27;;;;;;;2.53;1.97;;;;;;;3.32;100.00;97730.22;5071171;28;20256;-79
2021/11/27 04:13:53;;;;;;;2.20;2.00;;;;;;;3.40;100.00;97730.16;5070818;28;20639;-79
2021/11/27 04:16:19;;;;;;;1.63;1.37;;;;;;;3.44;100.00;97735.66;5070656;28;20186;-80
2021/11/27 04:18:44;;;;;;;2.23;1.57;;;;;;;3.13;100.00;97720.69;5070790;28;20183;-80
2021/11/27 04:21:11;;;;;;;1.63;1.53;;;;;;;2.93;100.00;97719.59;5070850;28;20175;-80
2021/11/27 04:23:36;;;;;;;2.33;2.10;;;;;;;2.92;100.00;97722.59;5070799;28;20265;-80
2021/11/27 04:26:02;;;;;;;2.40;2.20;;;;;;;2.80;100.00;97722.53;5070466;28;20323;-80
2021/11/27 04:28:27;;;;;;;1.73;1.53;;;;;;;2.83;100.00;97722.66;5070786;28;20210;-80
2021/11/27 04:30:53;;;;;;;1.40;1.27;;;;;;;2.81;100.00;97729.50;5070669;28;20724;-79
2021/11/27 04:33:18;;;;;;;1.50;1.40;;;;;;;2.83;100.00;97719.97;5070624;28;20183;-79
2021/11/27 04:35:43;;;;;;;1.40;1.30;;;;;;;3.14;100.00;97737.66;5070522;28;20187;-79
2021/11/27 04:38:09;;;;;;;1.60;1.27;;;;;;;3.28;100.00;97735.50;5070648;28;20181;-80
2021/11/27 04:40:35;;;;;;;1.87;1.77;;;;;;;3.09;100.00;97740.56;5070706;28;20185;-79
2021/11/27 04:43:01;;;;;;;1.20;1.10;;;;;;;2.92;100.00;97733.41;5070537;28;20175;-79
2021/11/27 04:45:27;;;;;;;0.90;0.90;;;;;;;2.96;100.00;97745.88;5070270;28;20216;-80
2021/11/27 04:47:52;;;;;;;1.23;1.03;;;;;;;3.06;100.00;97758.19;5069328;28;20261;-80
2021/11/27 04:50:18;;;;;;;2.43;1.37;;;;;;;3.03;100.00;97752.66;5070405;28;20185;-79
2021/11/27 04:52:44;;;;;;;1.73;1.03;;;;;;;3.03;100.00;97756.13;5070402;28;20297;-79
2021/11/27 04:55:10;;;;;;;1.17;1.07;;;;;;;2.93;100.00;97749.25;5068936;28;20179;-79
2021/11/27 04:57:36;;;;;;;1.33;0.93;;;;;;;2.99;100.00;97756.00;5070360;28;20228;-79
2021/11/27 05:00:07;;;;;;;1.20;1.10;;;;;;;3.06;100.00;97754.72;5069121;28;20265;-80
2021/11/27 05:02:32;;;;;;;5.03;3.73;;;;;;;3.21;100.00;97764.91;5070249;28;20175;-79
2021/11/27 05:04:57;;;;;;;3.80;2.67;;;;;;;3.08;100.00;97760.56;5070543;28;20257;-78
2021/11/27 05:07:23;;;;;;;1.73;1.50;;;;;;;2.99;100.00;97772.19;5070466;28;20277;-80
2021/11/27 05:09:48;;;;;;;2.07;1.97;;;;;;;3.29;100.00;97777.53;5067763;28;20414;-79
2021/11/27 05:12:13;;;;;;;1.87;1.77;;;;;;;3.27;100.00;97772.47;5070367;28;20194;-79
2021/11/27 05:14:39;;;;;;;2.97;2.50;;;;;;;3.21;100.00;97779.19;5070204;28;20648;-79
2021/11/27 05:17:04;;;;;;;1.50;1.40;;;;;;;3.07;100.00;97762.47;5070108;28;20175;-79
2021/11/27 05:19:30;;;;;;;1.80;1.70;;;;;;;3.04;100.00;97770.41;5070236;28;20179;-79
2021/11/27 05:21:55;;;;;;;1.53;1.43;;;;;;;3.13;100.00;97773.84;5072076;28;20194;-80
2021/11/27 05:24:20;;;;;;;0.80;0.70;;;;;;;3.11;100.00;97774.19;5072623;28;20277;-78
2021/11/27 05:26:46;;;;;;;2.50;2.07;;;;;;;3.14;100.00;97775.44;5073691;28;20281;-79
2021/11/27 05:29:11;;;;;;;2.50;2.07;;;;;;;3.11;100.00;97778.78;5073761;28;20166;-78
2021/11/27 05:31:37;;;;;;;1.03;1.00;;;;;;;3.15;100.00;97772.41;5073614;28;20264;-78
2021/11/27 05:36:31;;;;;;;1.57;1.47;;;;;;;3.06;100.00;97770.91;5073570;28;20170;-80
2021/11/27 05:38:56;;;;;;;1.67;1.37;;;;;;;3.04;100.00;97775.81;5073666;28;20222;-79
2021/11/27 05:41:22;;;;;;;3.43;1.57;;;;;;;2.99;100.00;97774.09;5073811;28;20198;-79
2021/11/27 05:43:47;;;;;;;1.30;1.20;;;;;;;3.07;100.00;97777.88;5073626;28;20174;-79
2021/11/27 05:46:13;;;;;;;2.20;2.00;;;;;;;2.93;100.00;97776.22;5073495;28;20179;-80
2021/11/27 05:48:38;;;;;;;2.10;1.93;;;;;;;2.94;100.00;97775.09;5073633;28;20568;-80
2021/11/27 05:51:04;;;;;;;2.43;2.00;;;;;;;3.03;100.00;97785.00;5073320;28;20657;-79
2021/11/27 05:53:29;;;;;;;2.70;2.13;;;;;;;2.92;100.00;97771.94;5073362;28;20174;-79
2021/11/27 05:55:55;;;;;;;2.23;2.03;;;;;;;3.03;100.00;97783.09;5073158;28;20179;-80
2021/11/27 05:58:21;;;;;;;1.67;1.57;;;;;;;2.98;100.00;97788.69;5073269;28;20178;-79
2021/11/27 06:00:49;;;;;;;2.47;2.07;;;;;;;2.90;100.00;97784.97;5073262;28;20210;-78
2021/11/27 06:03:14;;;;;;;2.03;1.90;;;;;;;2.99;100.00;97785.69;5073050;28;20174;-80
2021/11/27 06:05:41;;;;;;;2.30;2.07;;;;;;;2.94;100.00;97780.47;5073144;28;20175;-80
2021/11/27 06:08:06;;;;;;;1.70;1.50;;;;;;;2.75;100.00;97784.69;5073129;28;20177;-79
2021/11/27 06:10:33;;;;;;;3.63;1.73;;;;;;;2.83;100.00;97794.66;5073113;28;20175;-79
2021/11/27 06:12:59;;;;;;;2.10;2.00;;;;;;;2.97;100.00;97798.69;5073066;28;20166;-80
2021/11/27 06:15:25;;;;;;;3.10;2.27;;;;;;;3.05;100.00;97805.16;5071669;28;20220;-80
2021/11/27 06:17:50;;;;;;;2.07;1.60;;;;;;;2.75;100.00;97806.25;5072912;28;20228;-80
2021/11/27 06:20:16;;;;;;;2.03;1.83;;;;;;;2.95;100.00;97805.53;5073105;28;20587;-80
2021/11/27 06:22:42;;;;;;;2.37;2.17;;;;;;;3.08;100.00;97809.13;5072910;28;20208;-79
2021/11/27 06:25:08;;;;;;;2.00;1.77;;;;;;;3.22;100.00;97821.25;5072674;28;20171;-79
2021/11/27 06:27:34;;;;;;;1.50;1.40;;;;;;;3.02;100.00;97816.59;5071618;28;20211;-80
2021/11/27 06:29:59;;;;;;;2.23;1.97;;;;;;;3.03;100.00;97822.78;5072812;28;20194;-80
2021/11/27 06:32:25;;;;;;;4.33;2.00;;;;;;;2.87;100.00;97812.53;5070573;28;20199;-79
2021/11/27 06:34:52;;;;;;;3.73;1.87;;;;;;;2.92;100.00;97816.97;5072595;28;20179;-79
2021/11/27 06:37:18;;;;;;;1.83;1.73;;;;;;;2.94;100.00;97820.13;5072670;28;20170;-79
2021/11/27 06:39:44;;;;;;;2.40;2.20;;;;;;;2.81;100.00;97818.47;5072631;28;20171;-78
2021/11/27 06:42:09;;;;;;;3.13;2.17;;;;;;;2.93;100.00;97824.75;5072483;28;20607;-78
2021/11/27 06:44:34;;;;;;;2.87;2.30;;;;;;;2.98;100.00;97835.34;5072833;28;20178;-77
2021/11/27 06:47:00;;;;;;;2.10;1.90;;;;;;;3.12;100.00;97837.00;5072278;28;20182;-77
2021/11/27 06:49:25;;;;;;;2.67;2.20;;;;;;;2.95;100.00;97827.91;5072310;28;20182;-78
2021/11/27 06:51:51;;;;;;;3.20;2.60;;;;;;;2.90;100.00;97824.63;5072404;28;20198;-77
2021/11/27 06:54:16;;;;;;;2.70;2.50;;;;;;;3.07;100.00;97840.69;5072295;28;20179;-78
2021/11/27 06:56:41;;;;;;;2.90;2.60;;;;;;;3.07;100.00;97835.31;5072020;28;20262;-78
2021/11/27 06:59:07;;;;;;;2.87;2.67;;;;;;;3.02;100.00;97832.78;5072186;28;20179;-77
2021/11/27 07:01:33;;;;;;;2.33;2.13;;;;;;;3.05;100.00;97832.13;5071986;28;20174;-78
2021/11/27 07:03:59;;;;;;;2.67;2.47;;;;;;;3.16;100.00;97840.63;5072107;28;20171;-78
2021/11/27 07:06:24;;;;;;;3.23;2.30;;;;;;;3.22;100.00;97842.81;5071866;28;20170;-78
2021/11/27 07:08:50;;;;;;;2.47;2.27;;;;;;;3.28;100.00;97848.81;5071786;28;20191;-78
2021/11/27 07:11:15;;;;;;;2.87;2.30;;;;;;;3.29;100.00;97855.78;5071659;28;20197;-76
2021/11/27 07:13:40;;;;;;;4.17;2.70;;;;;;;3.38;100.00;97853.84;5071641;28;20185;-77
2021/11/27 07:16:06;;;;;;;2.93;2.63;;;;;;;3.28;100.00;97856.91;5071702;28;20273;-77
2021/11/27 07:18:31;;;;;;;2.93;2.67;;;;;;;3.41;100.00;97865.88;5071956;28;20649;-77
2021/11/27 07:20:57;;;;;;;2.27;1.87;;;;;;;3.23;100.00;97857.88;5071764;28;20179;-77
2021/11/27 07:23:22;;;;;;;3.70;2.57;;;;;;;3.26;100.00;97865.31;5071554;28;20206;-77
2021/11/27 07:25:48;;;;;;;8.17;4.83;;;;;;;3.32;100.00;97868.63;5071283;28;20211;-77
2021/11/27 07:28:14;;;;;;;8.00;4.83;;;;;;;3.33;100.00;97864.81;5071368;28;20251;-77
2021/11/27 07:30:39;;;;;;;10.03;6.00;;;;;;;3.43;100.00;97869.81;5071341;28;20263;-77
2021/11/27 07:33:05;;;;;;;4.17;3.23;;;;;;;3.41;100.00;97876.66;5071528;28;20206;-77
2021/11/27 07:35:30;;;;;;;3.30;2.90;;;;;;;3.18;100.00;97862.66;5071156;28;20606;-77
2021/11/27 07:37:56;;;;;;;2.90;2.30;;;;;;;3.12;100.00;97869.38;5071515;28;20332;-77
2021/11/27 07:40:22;;;;;;;3.33;3.03;;;;;;;3.23;100.00;97873.28;5068850;28;20190;-76
2021/11/27 07:42:48;;;;;;;2.53;2.33;;;;;;;3.10;100.00;97877.00;5068612;28;20321;-75
2021/11/27 07:45:16;;;;;;;2.70;2.07;;;;;;;3.07;100.00;97885.75;5070926;28;20261;-77
2021/11/27 07:47:42;;;;;;;3.13;2.30;;;;;;;3.09;100.00;97889.72;5051468;28;20171;-77
2021/11/27 07:50:08;;;;;;;2.97;2.67;;;;;;;3.21;100.00;97886.31;5071127;28;20170;-77
2021/11/27 07:52:33;;;;;;;3.30;2.80;;;;;;;3.42;100.00;97897.94;5071100;28;20210;-76
2021/11/27 07:54:59;;;;;;;5.67;4.30;;;;;;;3.54;100.00;97903.41;5070929;28;20594;-77
2021/11/27 07:57:24;;;;;;;4.73;4.33;;;;;;;3.54;100.00;97900.72;5070827;28;20178;-76
2021/11/27 07:59:49;;;;;;;3.17;2.87;;;;;;;3.58;100.00;97898.94;5071053;28;20171;-76
2021/11/27 08:02:15;;;;;;;2.10;1.87;;;;;;;3.59;100.00;97902.41;5070691;28;20178;-77
2021/11/27 08:04:41;;;;;;;3.33;3.03;;;;;;;3.64;100.00;97902.25;5070732;28;20273;-77
2021/11/27 08:07:06;;;;;;;5.17;4.47;;;;;;;3.68;100.00;97910.47;5070840;28;20265;-77
2021/11/27 08:09:32;;;;;;;3.63;3.20;;;;;;;3.54;100.00;97914.22;5070453;28;20191;-77
2021/11/27 08:11:58;;;;;;;3.57;3.20;;;;;;;3.56;100.00;97909.28;5070835;28;20313;-77
2021/11/27 08:14:28;;;;;;;4.17;3.77;;;;;;;3.67;100.00;97922.41;5070549;28;20632;-77
2021/11/27 08:16:53;;;;;;;3.23;2.93;;;;;;;3.64;100.00;97920.34;5052388;28;20194;-77
2021/11/27 08:19:19;;;;;;;4.63;3.60;;;;;;;3.66;100.00;97923.50;5068547;28;20233;-77
2021/11/27 08:21:44;;;;;;;4.67;2.90;;;;;;;3.58;100.00;97920.53;5070381;28;20186;-77
2021/11/27 08:24:09;;;;;;;3.33;2.57;;;;;;;3.70;100.00;97936.03;5067879;28;20186;-77
2021/11/27 08:26:35;;;;;;;8.07;3.83;;;;;;;3.74;100.00;97933.44;5070204;28;20592;-76
2021/11/27 08:29:00;;;;;;;2.83;2.53;;;;;;;3.53;100.00;97931.53;5070373;28;20547;-77
2021/11/27 08:31:26;;;;;;;2.53;2.13;;;;;;;3.67;100.00;97941.28;5070391;28;20243;-77
2021/11/27 08:33:52;;;;;;;2.90;2.33;;;;;;;3.51;100.00;97944.56;5070607;28;20197;-77
2021/11/27 08:36:17;;;;;;;2.80;2.50;;;;;;;3.55;100.00;97942.78;5070285;28;20182;-77
2021/11/27 08:38:42;;;;;;;2.57;2.27;;;;;;;3.62;100.00;97952.25;5070623;28;20262;-77
2021/11/27 08:41:08;;;;;;;3.83;3.33;;;;;;;3.65;100.00;97955.13;5070214;28;20184;-77
2021/11/27 08:43:35;;;;;;;3.23;2.67;;;;;;;3.70;100.00;97952.22;5066250;28;20186;-77
2021/11/27 08:46:01;;;;;;;2.67;2.43;;;;;;;3.55;100.00;97947.41;5048677;28;20217;-76
2021/11/27 08:48:27;;;;;;;2.70;2.40;;;;;;;3.55;100.00;97948.19;5068416;28;20178;-76
2021/11/27 08:50:53;;;;;;;2.63;2.40;;;;;;;3.41;100.00;97944.94;5070575;28;20269;-76
2021/11/27 08:53:19;;;;;;;2.53;2.00;;;;;;;3.45;100.00;97956.66;5068488;28;20190;-77
2021/11/27 08:55:45;;;;;;;3.80;3.33;;;;;;;3.53;100.00;97944.22;5070503;28;20675;-76
2021/11/27 08:58:12;;;;;;;3.63;2.50;;;;;;;3.40;100.00;97951.44;5074601;28;20178;-76
2021/11/27 09:00:40;;;;;;;2.47;2.27;;;;;;;3.52;100.00;97953.44;5075989;28;20182;-76
2021/11/27 09:03:05;;;;;;;1.50;1.40;;;;;;;3.68;100.00;97957.16;5083534;28;20178;-77
2021/11/27 09:05:31;;;;;;;2.40;1.87;;;;;;;3.68;100.00;97953.69;5081403;28;20174;-68
2021/11/27 09:07:57;;;;;;;1.67;1.30;;;;;;;3.68;100.00;97950.97;5076558;28;20174;-73
2021/11/27 09:10:22;;;;;;;1.87;1.77;;;;;;;3.60;100.00;97952.59;5075539;28;20184;-74
2021/11/27 09:12:50;;;;;;;0.70;0.57;;;;;;;3.56;100.00;97951.66;5074621;28;20214;-74
2021/11/27 09:15:16;;;;;;;1.90;1.33;;;;;;;3.50;100.00;97951.06;5074855;28;20183;-74
2021/11/27 09:17:41;;;;;;;1.97;1.40;;;;;;;3.50;100.00;97963.78;5074008;28;20227;-75
2021/11/27 09:20:07;;;;;;;1.60;1.50;;;;;;;3.49;100.00;97960.28;5074301;28;20182;-75
2021/11/27 09:22:33;;;;;;;0.93;0.90;;;;;;;3.48;100.00;97964.13;5073848;28;20691;-75
2021/11/27 09:24:58;;;;;;;1.30;1.07;;;;;;;3.43;100.00;97976.97;5073874;28;20178;-75
2021/11/27 09:27:23;;;;;;;1.40;1.30;;;;;;;3.44;100.00;97970.47;5074125;28;20183;-75
2021/11/27 09:29:49;;;;;;;1.30;1.20;;;;;;;3.41;100.00;97973.81;5074296;28;20162;-74
2021/11/27 09:32:15;;;;;;;1.33;1.23;;;;;;;3.45;100.00;97986.34;5073888;28;20199;-75
2021/11/27 09:34:40;;;;;;;1.53;1.10;;;;;;;3.54;100.00;97981.69;5072712;28;20190;-75
2021/11/27 09:37:11;;;;;;;2.00;1.37;;;;;;;3.57;100.00;97983.72;5073865;28;20198;-74
2021/11/27 09:39:36;;;;;;;1.63;1.53;;;;;;;3.66;100.00;97989.09;5073808;28;20200;-75
2021/11/27 09:42:02;;;;;;;1.50;1.40;;;;;;;3.70;100.00;97979.22;5073823;28;20182;-75
2021/11/27 09:44:34;;;;;;;0.20;0.10;;;;;;;3.68;100.00;97986.06;5073573;28;20170;-75
2021/11/27 09:47:01;;;;;;;0.77;0.67;;;;;;;3.69;100.00;97993.06;5073643;28;20205;-75
2021/11/27 09:49:27;;;;;;;0.80;0.80;;;;;;;3.76;100.00;97990.63;5073743;28;20201;-75
2021/11/27 09:51:53;;;;;;;1.47;1.27;;;;;;;3.79;100.00;97998.09;5072166;28;20577;-75
2021/11/27 09:54:21;;;;;;;1.07;0.97;;;;;;;3.79;100.00;98001.56;5073742;28;20179;-75
2021/11/27 09:56:48;;;;;;;1.13;1.03;;;;;;;3.86;100.00;98006.44;5073263;28;20166;-75
2021/11/27 09:59:14;;;;;;;0.30;0.30;;;;;;;3.85;100.00;98002.97;5073927;28;20535;-75
2021/11/27 10:01:47;;;;;;;0.80;0.80;;;;;;;3.76;100.00;98010.34;5072935;28;20170;-75
2021/11/27 10:04:14;;;;;;;0.80;0.80;;;;;;;3.78;100.00;97996.50;5072059;28;20171;-76
2021/11/27 10:06:41;;;;;;;0.30;0.30;;;;;;;3.78;100.00;98010.00;5071849;28;20178;-75
2021/11/27 10:09:18;;;;;;;1.00;0.90;;;;;;;3.79;100.00;98006.97;5073148;28;20614;-75
2021/11/27 10:11:45;;;;;;;1.50;1.03;;;;;;;3.81;100.00;98015.53;5073148;28;20202;-75
2021/11/27 10:14:11;;;;;;;0.60;0.57;;;;;;;3.79;100.00;98014.28;5073152;28;20171;-75
2021/11/27 10:16:58;;;;;;;0.60;0.60;;;;;;;3.76;100.00;98020.31;5072980;28;20178;-75
2021/11/27 10:19:27;;;;;;;0.57;0.50;;;;;;;3.73;100.00;98023.69;5071987;28;20530;-74
2021/11/27 10:22:00;;;;;;;0.37;0.37;;;;;;;3.72;100.00;98020.19;5073443;28;20170;-75
2021/11/27 10:24:31;;;;;;;0.50;0.50;;;;;;;3.67;100.00;98025.78;5072955;28;20284;-75
2021/11/27 10:27:00;;;;;;;0.40;0.40;;;;;;;3.56;100.00;98011.84;5072713;28;20585;-74
2021/11/27 10:29:34;;;;;;;0.20;0.10;;;;;;;3.60;100.00;98017.38;5072889;28;20198;-75
2021/11/27 10:32:10;;;;;;;0.27;0.23;;;;;;;3.63;100.00;98032.16;5072742;28;20201;-76
2021/11/27 10:34:37;;;;;;;0.60;0.40;;;;;;;3.68;100.00;98030.06;5071230;28;20542;-74
2021/11/27 10:37:25;;;;;;;0.27;0.23;;;;;;;3.71;100.00;98025.91;5072394;28;20193;-77
2021/11/27 10:39:59;;;;;;;0.50;0.50;;;;;;;3.76;100.00;98031.94;5072617;28;20448;-78
2021/11/27 10:42:24;;;;;;;0.20;0.20;;;;;;;3.79;100.00;98030.50;5072353;28;20184;-78
2021/11/27 10:44:52;;;;;;;0.60;0.50;;;;;;;3.83;100.00;98036.81;5072119;28;20178;-78
2021/11/27 10:47:18;;;;;;;0.37;0.37;;;;;;;3.88;100.00;98042.03;5072692;28;20211;-78
2021/11/27 10:49:46;;;;;;;0.30;0.30;;;;;;;3.93;100.00;98031.06;5072444;28;20170;-78
2021/11/27 10:52:17;;;;;;;0.20;0.20;;;;;;;3.88;100.00;98034.72;5072151;28;20206;-78
2021/11/27 10:54:49;;;;;;;0.10;0.10;;;;;;;3.87;100.00;98029.63;5070663;28;20178;-78
2021/11/27 10:57:35;;;;;;;0.03;0.03;;;;;;;3.84;100.00;98028.38;5072007;28;20170;-78
2021/11/27 11:00:09;;;;;;;0.00;0.00;;;;;;;3.82;100.00;98027.13;5072469;28;20182;-78
2021/11/27 11:02:39;;;;;;;0.10;0.10;;;;;;;3.79;100.00;98030.50;5071487;28;20182;-78
2021/11/27 11:05:11;;;;;;;0.40;0.40;;;;;;;3.83;100.00;98034.13;5071865;28;20204;-78
2021/11/27 11:07:37;;;;;;;0.43;0.43;;;;;;;3.85;100.00;98045.38;5072019;28;20587;-77
2021/11/27 11:10:14;;;;;;;0.40;0.40;;;;;;;3.85;100.00;98043.47;5071926;28;20240;-78
2021/11/27 11:12:50;;;;;;;0.93;0.60;;;;;;;3.93;100.00;98044.56;5071876;28;20201;-78
2021/11/27 11:15:37;;;;;;;0.17;0.17;;;;;;;3.98;100.00;98052.47;5071774;28;20495;-78
2021/11/27 11:18:12;;;;;;;0.00;0.00;;;;;;;3.95;100.00;98041.53;5071669;28;20195;-78
2021/11/27 11:20:51;;;;;;;0.60;0.50;;;;;;;3.91;100.00;98043.31;5070518;28;20182;-78
2021/11/27 11:23:28;;;;;;;0.27;0.27;;;;;;;3.92;100.00;98052.97;5071809;28;20187;-77
2021/11/27 11:26:01;;;;;;;0.00;0.00;;;;;;;3.89;100.00;98049.00;5071812;28;20170;-78
2021/11/27 11:28:39;;;;;;;0.57;0.57;;;;;;;3.94;100.00;98054.25;5071757;28;20229;-78
2021/11/27 11:31:08;;;;;;;0.37;0.37;;;;;;;3.97;100.00;98052.78;5071612;28;20167;-78
2021/11/27 11:33:38;;;;;;;0.47;0.47;;;;;;;3.96;100.00;98043.09;5071615;28;20539;-78
2021/11/27 11:36:07;;;;;;;0.70;0.70;;;;;;;3.96;100.00;98054.69;5071370;28;20249;-78